Time;durP1;ratioP1;P1;durP2;ratioP2;P2;SDS_P1;SDS_P2;PMS_P1;PMS_P2;Temp;Humidity;BMP_temperature;BMP_pressure;BME280_temperature;BME280_humidity;BME280_pressure;Samples;Min_cycle;Max_cycle;Signal;HPM_P1;HPM_P2
2023/08/04 00:01:35;;;;;;;1.80;1.00;;;;;;;21.32;74.52;98049.47;4995500;28;103281;-64
2023/08/04 00:04:03;;;;;;;1.75;0.95;;;;;;;21.67;73.37;98047.69;4997831;28;102820;-64
2023/08/04 00:06:32;;;;;;;1.77;1.10;;;;;;;22.10;70.91;98054.59;4995433;28;103020;-64
2023/08/04 00:09:00;;;;;;;1.45;0.82;;;;;;;21.70;72.98;98066.09;4993005;28;103901;-64
2023/08/04 00:11:30;;;;;;;1.13;0.90;;;;;;;21.97;70.17;98059.91;4997500;28;103034;-64
2023/08/04 00:13:58;;;;;;;2.53;1.30;;;;;;;20.29;78.29;98062.41;4995441;28;102894;-64
2023/08/04 00:16:27;;;;;;;1.85;1.20;;;;;;;19.40;83.36;98066.00;4998143;28;102732;-64
2023/08/04 00:18:55;;;;;;;1.90;1.20;;;;;;;19.80;81.73;98072.81;4996650;28;103557;-64
2023/08/04 00:21:23;;;;;;;1.48;1.30;;;;;;;19.40;82.84;98066.00;4994111;28;104072;-64
2023/08/04 00:23:57;;;;;;;2.35;1.25;;;;;;;20.37;80.16;98062.28;4997420;28;102597;-64
2023/08/04 00:26:26;;;;;;;3.63;1.40;;;;;;;19.60;82.24;98071.69;4990168;28;104574;-62
2023/08/04 00:28:56;;;;;;;1.95;1.13;;;;;;;20.05;80.68;98065.34;4988518;28;104135;-61
2023/08/04 00:31:24;;;;;;;2.80;1.50;;;;;;;19.98;81.31;98070.63;4999095;28;103286;-62
2023/08/04 00:33:52;;;;;;;3.08;1.30;;;;;;;20.24;80.29;98065.63;4996774;28;103089;-61
2023/08/04 00:36:21;;;;;;;2.58;1.45;;;;;;;20.71;77.70;98057.13;5000498;28;103668;-61
2023/08/04 00:38:51;;;;;;;2.17;1.00;;;;;;;21.20;75.29;98065.28;5008434;27;104557;-61
2023/08/04 00:41:22;;;;;;;1.27;1.00;;;;;;;21.19;74.15;98068.16;4993793;28;103195;-61
2023/08/04 00:43:50;;;;;;;2.38;1.25;;;;;;;21.03;73.54;98061.16;4993472;28;102713;-62
2023/08/04 00:46:20;;;;;;;1.65;1.17;;;;;;;20.18;80.17;98060.97;4995253;28;103988;-65
2023/08/04 00:48:49;;;;;;;1.20;0.80;;;;;;;20.86;76.96;98065.09;4992401;28;104157;-61
2023/08/04 00:51:17;;;;;;;1.40;1.13;;;;;;;20.63;77.65;98064.47;4994669;28;103251;-61
2023/08/04 00:53:46;;;;;;;1.90;1.00;;;;;;;21.25;74.67;98072.75;4995097;28;102755;-62
2023/08/04 00:56:14;;;;;;;2.88;1.05;;;;;;;21.35;73.65;98075.94;5012571;27;102841;-62
2023/08/04 00:58:42;;;;;;;4.33;2.47;;;;;;;21.05;75.43;98069.84;4993973;28;104067;-61
2023/08/04 01:01:11;;;;;;;2.90;2.15;;;;;;;21.49;73.12;98076.88;4996339;28;103757;-61
2023/08/04 01:03:41;;;;;;;3.10;1.90;;;;;;;21.01;73.82;98067.75;5007140;27;102778;-61
2023/08/04 01:06:16;;;;;;;2.15;1.60;;;;;;;21.09;73.74;98076.53;4997538;28;102746;-61
2023/08/04 01:08:54;;;;;;;1.60;1.10;;;;;;;20.61;75.34;98077.22;4992282;28;104328;-62
2023/08/04 01:11:27;;;;;;;2.38;1.25;;;;;;;20.47;76.78;98080.75;4996615;28;104139;-61
2023/08/04 01:13:56;;;;;;;1.80;1.30;;;;;;;21.07;74.89;98077.72;4994389;28;102846;-62
2023/08/04 01:16:25;;;;;;;2.45;1.38;;;;;;;21.25;74.04;98087.00;5010188;27;102953;-62
2023/08/04 01:18:59;;;;;;;1.37;1.00;;;;;;;21.32;73.63;98077.19;4990628;28;103714;-63
2023/08/04 01:21:39;;;;;;;1.27;0.90;;;;;;;21.50;73.28;98073.19;4993696;28;103330;-62
2023/08/04 01:24:08;;;;;;;1.77;1.00;;;;;;;21.69;72.55;98075.19;5007664;27;103075;-61
2023/08/04 01:26:39;;;;;;;1.75;1.10;;;;;;;21.39;74.45;98072.66;4995333;28;104211;-62
2023/08/04 01:29:10;;;;;;;2.60;1.40;;;;;;;21.24;74.20;98074.63;4992929;28;104373;-61
2023/08/04 01:31:40;;;;;;;2.43;1.50;;;;;;;21.08;74.44;98071.38;4997290;28;103818;-61
2023/08/04 01:34:08;;;;;;;3.87;1.53;;;;;;;20.26;79.22;98064.63;4997359;28;103811;-62
2023/08/04 01:36:38;;;;;;;2.00;1.52;;;;;;;19.86;81.69;98066.72;4995127;28;102958;-61
2023/08/04 01:39:06;;;;;;;2.37;1.60;;;;;;;19.93;81.36;98062.28;4995789;28;103279;-62
2023/08/04 01:41:34;;;;;;;3.20;1.40;;;;;;;20.45;80.02;98053.31;4990226;28;103374;-61
2023/08/04 01:44:03;;;;;;;2.13;1.42;;;;;;;20.77;78.11;98055.53;5010179;27;103456;-61
2023/08/04 01:46:31;;;;;;;1.92;1.10;;;;;;;21.13;76.32;98059.03;4996637;28;103184;-62
2023/08/04 01:49:00;;;;;;;2.40;1.25;;;;;;;20.67;77.75;98061.19;5008701;27;104354;-61
2023/08/04 01:51:28;;;;;;;2.00;1.20;;;;;;;20.73;76.76;98048.88;5011320;27;104408;-61
2023/08/04 01:53:57;;;;;;;2.20;1.30;;;;;;;20.75;76.85;98052.19;4992178;28;102680;-61
2023/08/04 01:56:26;;;;;;;2.15;1.15;;;;;;;21.27;75.11;98058.13;4994809;28;102769;-61
2023/08/04 01:58:54;;;;;;;2.00;1.58;;;;;;;20.47;78.83;98053.94;5009052;27;105139;-62
2023/08/04 02:01:23;;;;;;;2.78;1.48;;;;;;;20.24;79.66;98057.59;5013531;27;104048;-62
2023/08/04 02:03:51;;;;;;;1.88;1.00;;;;;;;20.56;79.43;98063.53;4988993;28;102710;-61
2023/08/04 02:06:19;;;;;;;3.10;1.50;;;;;;;20.69;78.12;98052.94;5009155;27;104070;-62
2023/08/04 02:08:48;;;;;;;1.92;1.20;;;;;;;20.81;78.26;98057.63;4994789;28;104109;-62
2023/08/04 02:11:17;;;;;;;2.30;1.20;;;;;;;20.79;78.44;98056.16;4994062;28;103189;-62
2023/08/04 02:13:46;;;;;;;1.45;1.05;;;;;;;21.26;76.10;98055.63;5008809;27;102663;-62
2023/08/04 02:16:14;;;;;;;1.25;1.00;;;;;;;21.33;75.15;98046.59;4992190;28;104131;-61
2023/08/04 02:18:43;;;;;;;1.67;1.17;;;;;;;21.07;75.91;98056.25;4996102;28;104107;-62
2023/08/04 02:21:11;;;;;;;1.83;1.00;;;;;;;21.12;76.42;98056.53;5010727;27;103854;-61
2023/08/04 02:23:41;;;;;;;2.30;1.20;;;;;;;21.14;76.69;98049.09;4994540;28;102944;-61
2023/08/04 02:26:09;;;;;;;2.03;1.03;;;;;;;21.00;77.43;98056.16;4992151;28;103921;-62
2023/08/04 02:28:39;;;;;;;1.80;1.10;;;;;;;20.70;77.54;98051.94;4992759;28;103878;-61
2023/08/04 02:31:07;;;;;;;1.23;0.80;;;;;;;20.96;78.13;98054.91;4996385;28;103265;-61
2023/08/04 02:33:36;;;;;;;1.10;0.80;;;;;;;21.39;75.55;98058.41;4995895;28;102676;-61
2023/08/04 02:36:05;;;;;;;1.17;1.00;;;;;;;21.65;74.05;98055.09;5012243;27;102883;-61
2023/08/04 02:38:33;;;;;;;1.60;1.10;;;;;;;21.82;72.06;98061.84;4990974;28;103267;-61
2023/08/04 02:41:03;;;;;;;1.87;1.10;;;;;;;21.62;71.80;98067.06;4995028;28;103339;-61
2023/08/04 02:43:31;;;;;;;2.58;1.27;;;;;;;20.40;78.05;98061.09;4992519;28;102679;-62
2023/08/04 02:46:01;;;;;;;2.10;1.20;;;;;;;20.04;81.54;98069.06;4990622;28;103710;-62
2023/08/04 02:48:29;;;;;;;3.08;1.45;;;;;;;19.61;83.30;98062.63;4991650;28;103011;-61
2023/08/04 02:50:59;;;;;;;1.52;1.20;;;;;;;20.54;80.65;98065.59;4995685;28;103244;-62
2023/08/04 02:53:27;;;;;;;1.58;1.30;;;;;;;20.24;79.47;98065.63;5007961;27;102818;-62
2023/08/04 02:55:56;;;;;;;2.47;1.25;;;;;;;20.66;79.05;98066.78;4990900;28;104050;-61
2023/08/04 02:58:27;;;;;;;1.60;1.17;;;;;;;21.20;76.85;98057.22;4997690;28;104003;-61
2023/08/04 03:00:56;;;;;;;2.33;1.25;;;;;;;21.30;75.71;98062.28;4993557;28;103239;-61
2023/08/04 03:03:25;;;;;;;2.20;1.10;;;;;;;21.13;75.10;98061.72;5000960;28;102664;-61
2023/08/04 03:05:57;;;;;;;1.93;1.27;;;;;;;20.74;78.25;98061.28;4994141;28;103033;-62
2023/08/04 03:08:25;;;;;;;1.40;1.20;;;;;;;20.39;79.78;98059.41;4995371;28;104180;-61
2023/08/04 03:10:54;;;;;;;2.10;1.10;;;;;;;21.15;77.07;98062.34;4997481;28;103259;-61
2023/08/04 03:13:22;;;;;;;2.00;1.20;;;;;;;20.80;77.64;98061.34;4994934;28;102980;-62
2023/08/04 03:15:55;;;;;;;2.15;1.30;;;;;;;21.14;76.96;98063.34;4997059;28;103737;-61
2023/08/04 03:18:25;;;;;;;2.10;1.17;;;;;;;21.51;74.52;98069.47;5006698;27;104269;-61
2023/08/04 03:20:54;;;;;;;3.07;1.40;;;;;;;20.91;76.41;98073.44;4996081;28;103557;-61
2023/08/04 03:23:23;;;;;;;2.30;1.03;;;;;;;21.36;75.64;98073.06;5000492;28;103188;-62
2023/08/04 03:25:51;;;;;;;2.25;1.38;;;;;;;21.01;75.96;98068.59;4995762;28;103035;-61
2023/08/04 03:28:19;;;;;;;1.70;1.30;;;;;;;20.90;78.08;98069.09;5006931;27;104307;-62
2023/08/04 03:30:48;;;;;;;3.35;1.20;;;;;;;20.19;80.68;98073.38;4995648;28;103298;-62
2023/08/04 03:33:16;;;;;;;1.50;1.00;;;;;;;21.08;78.04;98077.56;5011584;27;102905;-61
2023/08/04 03:35:45;;;;;;;1.40;1.00;;;;;;;21.68;74.80;98079.72;5012583;27;103429;-61
2023/08/04 03:38:13;;;;;;;3.35;1.25;;;;;;;21.18;76.65;98072.69;4997784;28;103285;-61
2023/08/04 03:40:42;;;;;;;1.63;1.10;;;;;;;21.44;76.15;98069.41;4994365;28;104290;-61
2023/08/04 03:43:10;;;;;;;2.63;1.27;;;;;;;21.29;75.21;98072.19;5012287;27;102815;-62
2023/08/04 03:45:39;;;;;;;2.80;1.40;;;;;;;20.33;80.01;98065.53;4997900;28;103140;-61
2023/08/04 03:48:07;;;;;;;1.58;1.17;;;;;;;21.35;77.15;98060.66;4994898;28;103260;-62
2023/08/04 03:50:35;;;;;;;3.03;1.00;;;;;;;21.66;75.09;98070.19;4988941;28;103400;-61
2023/08/04 03:53:08;;;;;;;1.50;1.13;;;;;;;21.72;75.11;98061.38;5013281;27;103102;-62
2023/08/04 03:55:37;;;;;;;1.83;1.10;;;;;;;21.94;73.86;98068.38;4997178;28;102843;-62
2023/08/04 03:58:05;;;;;;;1.38;0.95;;;;;;;22.20;72.59;98060.44;5008090;27;104559;-62
2023/08/04 04:00:34;;;;;;;1.57;1.17;;;;;;;21.75;73.82;98060.97;4992424;28;103326;-62
2023/08/04 04:03:04;;;;;;;2.60;1.30;;;;;;;21.72;74.86;98069.44;4996637;28;102646;-62
2023/08/04 04:05:33;;;;;;;3.30;1.60;;;;;;;21.76;75.14;98063.44;4995939;28;102943;-63
2023/08/04 04:08:02;;;;;;;1.77;1.35;;;;;;;21.32;77.19;98071.81;5005962;27;104602;-63
2023/08/04 04:10:33;;;;;;;2.40;1.33;;;;;;;20.83;79.77;98073.53;4992982;28;103254;-63
2023/08/04 04:13:02;;;;;;;2.58;1.33;;;;;;;20.39;81.50;98073.66;4999515;28;102744;-62
2023/08/04 04:15:32;;;;;;;3.30;1.55;;;;;;;19.55;86.31;98066.88;4998214;28;104214;-62
2023/08/04 04:18:01;;;;;;;4.53;1.90;;;;;;;19.25;88.26;98077.69;5009294;27;103678;-63
2023/08/04 04:20:30;;;;;;;6.00;2.00;;;;;;;19.71;87.50;98068.56;4989283;28;103269;-63
2023/08/04 04:23:00;;;;;;;3.92;1.90;;;;;;;20.37;85.11;98064.13;4991232;28;103032;-63
2023/08/04 04:25:29;;;;;;;3.78;1.38;;;;;;;20.88;82.19;98079.19;4996870;28;102822;-63
2023/08/04 04:27:59;;;;;;;3.50;1.13;;;;;;;21.52;79.00;98073.81;4996111;28;103801;-63
2023/08/04 04:30:28;;;;;;;3.03;1.50;;;;;;;21.44;76.51;98073.97;5000433;28;103275;-63
2023/08/04 04:32:57;;;;;;;2.10;1.30;;;;;;;21.34;78.29;98080.50;4996708;28;102574;-63
2023/08/04 04:35:27;;;;;;;3.40;1.40;;;;;;;20.85;79.73;98076.88;4996215;28;103774;-63
2023/08/04 04:37:56;;;;;;;3.03;1.50;;;;;;;20.91;79.53;98078.81;5002599;28;103076;-63
2023/08/04 04:40:26;;;;;;;3.28;1.40;;;;;;;20.82;79.02;98079.94;4996236;28;103150;-63
2023/08/04 04:42:55;;;;;;;2.45;1.50;;;;;;;20.44;82.13;98081.97;4996171;28;103077;-63
2023/08/04 04:45:26;;;;;;;3.20;1.50;;;;;;;20.49;80.88;98084.91;4997251;28;102645;-63
2023/08/04 04:47:55;;;;;;;3.03;1.33;;;;;;;21.24;78.58;98095.28;4995295;28;103084;-63
2023/08/04 04:50:24;;;;;;;3.22;1.30;;;;;;;21.39;77.31;98094.16;4995000;28;104167;-62
2023/08/04 04:52:53;;;;;;;3.10;1.20;;;;;;;21.45;77.77;98097.94;4998249;28;102909;-62
2023/08/04 04:55:23;;;;;;;3.10;1.37;;;;;;;21.08;78.47;98100.91;4992153;28;103919;-62
2023/08/04 04:57:52;;;;;;;4.20;1.30;;;;;;;20.95;79.70;98092.66;4994737;28;103209;-63
2023/08/04 05:00:21;;;;;;;1.25;1.00;;;;;;;21.53;78.29;98105.06;4995333;28;103221;-63
2023/08/04 05:02:51;;;;;;;1.73;1.07;;;;;;;21.84;76.56;98102.78;4995730;28;103141;-62
2023/08/04 05:05:20;;;;;;;4.20;1.50;;;;;;;21.93;74.99;98091.72;4993059;28;102883;-63
2023/08/04 05:07:49;;;;;;;2.20;1.00;;;;;;;22.24;74.12;98099.34;4994554;28;104032;-63
2023/08/04 05:10:18;;;;;;;1.70;1.03;;;;;;;22.34;72.67;98099.81;4992164;28;103047;-63
2023/08/04 05:12:47;;;;;;;1.20;0.82;;;;;;;22.54;72.44;98100.75;4989945;28;102981;-62
2023/08/04 05:15:17;;;;;;;1.52;1.17;;;;;;;22.63;72.07;98098.72;4988953;28;103951;-63
2023/08/04 05:17:46;;;;;;;1.40;1.10;;;;;;;22.69;71.26;98102.50;4989632;28;104258;-62
2023/08/04 05:20:20;;;;;;;1.27;0.90;;;;;;;22.91;70.33;98106.69;4988905;28;103189;-62
2023/08/04 05:22:51;;;;;;;1.95;1.20;;;;;;;22.34;71.02;98115.16;4986871;28;102658;-62
2023/08/04 05:25:20;;;;;;;2.95;1.10;;;;;;;22.66;71.09;98119.03;4993455;28;103661;-62
2023/08/04 05:27:50;;;;;;;1.80;1.10;;;;;;;22.91;69.72;98109.41;4989796;28;103098;-62
2023/08/04 05:30:19;;;;;;;2.22;1.20;;;;;;;22.31;73.26;98111.00;4996219;28;103309;-62
2023/08/04 05:32:50;;;;;;;2.60;1.20;;;;;;;22.70;72.35;98104.16;4995444;28;102884;-62
2023/08/04 05:35:21;;;;;;;1.45;1.00;;;;;;;23.05;70.96;98113.78;4994176;28;102763;-63
2023/08/04 05:37:50;;;;;;;3.33;1.43;;;;;;;23.00;70.67;98117.09;4996706;28;103220;-62
2023/08/04 05:40:20;;;;;;;3.63;1.50;;;;;;;22.99;70.14;98120.81;4992386;28;103115;-62
2023/08/04 05:42:51;;;;;;;2.05;1.45;;;;;;;23.01;70.02;98120.63;4994052;28;102625;-62
2023/08/04 05:45:21;;;;;;;3.53;1.73;;;;;;;22.33;72.84;98125.09;4994648;28;104532;-62
2023/08/04 05:47:51;;;;;;;1.70;1.15;;;;;;;23.10;70.21;98122.91;4991766;28;104182;-62
2023/08/04 05:50:23;;;;;;;1.95;1.30;;;;;;;23.46;68.53;98119.91;4987740;28;103120;-64
2023/08/04 05:52:55;;;;;;;2.78;1.20;;;;;;;23.63;67.35;98123.03;4985021;28;103237;-63
2023/08/04 05:55:27;;;;;;;4.28;1.80;;;;;;;22.92;68.85;98124.53;4991764;28;102764;-62
2023/08/04 05:57:57;;;;;;;2.13;1.00;;;;;;;23.38;68.30;98120.09;4991724;28;103275;-62
2023/08/04 06:00:29;;;;;;;2.50;1.30;;;;;;;23.41;67.30;98114.28;4992309;28;103050;-62
2023/08/04 06:02:59;;;;;;;2.20;1.27;;;;;;;22.92;68.76;98119.16;4987849;28;102833;-63
2023/08/04 06:05:31;;;;;;;2.33;1.17;;;;;;;22.51;69.76;98130.75;4984304;28;105118;-63
2023/08/04 06:08:02;;;;;;;2.08;1.20;;;;;;;23.40;67.86;98126.13;4985237;28;103258;-63
2023/08/04 06:10:31;;;;;;;2.90;1.10;;;;;;;23.33;67.55;98127.94;4987633;28;104349;-62
2023/08/04 06:13:02;;;;;;;2.40;1.27;;;;;;;23.38;67.21;98125.47;4992271;28;102750;-62
2023/08/04 06:15:32;;;;;;;1.92;1.13;;;;;;;23.45;67.37;98126.34;4990284;28;102962;-63
2023/08/04 06:18:03;;;;;;;2.73;1.20;;;;;;;22.53;67.82;98131.41;4993062;28;104430;-62
2023/08/04 06:20:35;;;;;;;2.70;1.08;;;;;;;23.01;68.84;98123.31;4996327;28;103241;-62
2023/08/04 06:23:04;;;;;;;2.83;1.70;;;;;;;22.25;70.66;98133.31;4993654;28;102845;-62
2023/08/04 06:25:34;;;;;;;3.78;1.77;;;;;;;22.08;71.26;98133.81;4996281;28;104110;-62
2023/08/04 06:28:05;;;;;;;3.50;1.52;;;;;;;22.22;70.75;98136.41;4990741;28;103137;-62
2023/08/04 06:30:34;;;;;;;2.85;1.30;;;;;;;22.52;72.27;98135.13;4994730;28;104217;-62
2023/08/04 06:33:05;;;;;;;1.80;1.15;;;;;;;22.93;71.85;98134.28;4995687;28;102814;-63
2023/08/04 06:35:41;;;;;;;4.57;1.77;;;;;;;22.59;72.38;98139.69;5000065;28;102723;-62
2023/08/04 06:38:13;;;;;;;2.65;1.45;;;;;;;22.76;72.05;98141.88;4997487;28;104033;-62
2023/08/04 06:40:44;;;;;;;3.20;1.30;;;;;;;23.48;68.98;98136.72;5002150;28;103090;-62
2023/08/04 06:43:17;;;;;;;2.40;1.00;;;;;;;24.11;66.92;98137.16;5019740;27;103632;-63
2023/08/04 06:45:51;;;;;;;2.58;1.02;;;;;;;24.73;65.89;98145.47;5008391;28;104089;-62
2023/08/04 06:48:27;;;;;;;4.75;1.52;;;;;;;24.07;65.39;98143.97;4999418;28;103048;-63
2023/08/04 06:51:03;;;;;;;3.70;1.50;;;;;;;23.00;68.84;98149.44;5002110;28;103282;-62
2023/08/04 06:53:39;;;;;;;4.10;1.43;;;;;;;23.81;66.82;98146.66;5004470;28;102784;-60
2023/08/04 06:56:10;;;;;;;2.53;1.38;;;;;;;22.88;70.62;98156.41;5002314;28;102753;-60
2023/08/04 06:58:43;;;;;;;2.60;1.10;;;;;;;23.66;67.21;98153.09;5000359;28;103527;-61
2023/08/04 07:01:15;;;;;;;1.98;1.20;;;;;;;24.26;65.26;98153.91;4997105;28;103064;-61
2023/08/04 07:03:49;;;;;;;2.83;1.37;;;;;;;23.30;67.09;98139.13;5000379;28;102816;-62
2023/08/04 07:06:23;;;;;;;3.33;1.20;;;;;;;24.37;64.96;98147.03;5001900;28;104049;-62
2023/08/04 07:08:56;;;;;;;3.43;1.40;;;;;;;24.28;65.00;98149.13;5001824;28;103265;-62
2023/08/04 07:11:28;;;;;;;3.40;1.20;;;;;;;24.60;63.92;98148.22;5002463;28;103027;-63
2023/08/04 07:13:59;;;;;;;2.50;1.20;;;;;;;24.96;63.56;98146.84;4995686;28;102628;-62
2023/08/04 07:16:32;;;;;;;3.25;1.27;;;;;;;24.97;62.70;98148.53;5000245;28;102646;-61
2023/08/04 07:19:08;;;;;;;2.75;1.40;;;;;;;24.96;62.77;98142.28;5000656;28;104026;-60
2023/08/04 07:21:44;;;;;;;3.58;1.38;;;;;;;24.95;63.09;98147.94;5003320;28;104377;-62
2023/08/04 07:24:19;;;;;;;2.95;1.23;;;;;;;25.43;60.57;98154.53;5004108;28;102587;-62
2023/08/04 07:26:54;;;;;;;1.80;1.00;;;;;;;25.47;59.45;98150.34;4997238;28;102983;-62
2023/08/04 07:29:33;;;;;;;3.33;0.98;;;;;;;25.37;60.58;98155.38;4999096;28;104204;-62
2023/08/04 07:32:08;;;;;;;1.40;0.90;;;;;;;25.42;60.16;98162.84;5002184;28;102971;-61
2023/08/04 07:34:41;;;;;;;1.80;0.93;;;;;;;24.97;60.44;98170.97;5014243;27;102758;-60
2023/08/04 07:37:17;;;;;;;1.75;0.90;;;;;;;25.46;58.96;98167.56;4999352;28;102949;-61
2023/08/04 07:39:50;;;;;;;2.35;0.80;;;;;;;25.69;58.89;98167.03;4999450;28;103920;-61
2023/08/04 07:42:24;;;;;;;1.98;0.90;;;;;;;25.83;56.00;98172.13;5004056;28;103179;-63
2023/08/04 07:44:58;;;;;;;3.13;0.95;;;;;;;24.23;60.64;98168.66;4999228;28;102632;-63
2023/08/04 07:47:31;;;;;;;2.85;1.23;;;;;;;22.98;65.54;98167.66;5001719;28;102741;-63
2023/08/04 07:50:07;;;;;;;2.92;1.20;;;;;;;23.43;65.48;98176.94;4998565;28;102985;-63
2023/08/04 07:52:40;;;;;;;1.85;0.90;;;;;;;24.96;60.97;98168.47;4998487;28;102989;-62
2023/08/04 07:55:14;;;;;;;2.08;1.02;;;;;;;24.68;61.35;98175.00;4998613;28;102748;-63
2023/08/04 07:57:47;;;;;;;2.42;1.10;;;;;;;24.95;61.68;98180.34;4999789;28;102707;-63
2023/08/04 08:00:19;;;;;;;3.97;1.23;;;;;;;25.27;60.82;98182.03;5014611;27;102995;-62
2023/08/04 08:02:56;;;;;;;2.53;1.00;;;;;;;25.52;60.00;98191.06;5002416;28;103333;-63
2023/08/04 08:05:31;;;;;;;2.17;1.00;;;;;;;24.93;63.77;98190.53;4998190;28;102875;-61
2023/08/04 08:08:08;;;;;;;2.50;1.00;;;;;;;25.75;59.49;98188.63;4999158;28;103222;-61
2023/08/04 08:10:41;;;;;;;1.88;0.90;;;;;;;24.32;62.15;98187.34;5016861;27;103147;-62
2023/08/04 08:13:16;;;;;;;2.40;1.15;;;;;;;24.43;62.35;98184.81;5002047;28;104005;-62
2023/08/04 08:15:51;;;;;;;2.30;1.00;;;;;;;25.13;62.08;98178.59;5015413;27;102721;-60
2023/08/04 08:18:29;;;;;;;2.87;1.20;;;;;;;23.87;64.08;98180.91;5001450;28;102828;-61
2023/08/04 08:21:09;;;;;;;3.07;0.87;;;;;;;25.35;59.24;98176.38;5016605;27;103102;-60
2023/08/04 08:23:48;;;;;;;2.87;0.97;;;;;;;25.74;59.96;98168.03;5002107;28;102951;-60
2023/08/04 08:26:29;;;;;;;1.75;1.00;;;;;;;26.63;57.91;98162.25;4999095;28;102648;-62
2023/08/04 08:29:19;;;;;;;1.85;1.02;;;;;;;26.04;59.07;98161.97;5006715;28;102586;-62
2023/08/04 08:32:00;;;;;;;2.70;1.20;;;;;;;25.78;59.49;98158.44;5003845;28;103219;-62
2023/08/04 08:34:43;;;;;;;2.78;1.00;;;;;;;26.76;56.14;98151.25;4996795;28;103061;-62
2023/08/04 08:37:22;;;;;;;2.55;1.33;;;;;;;25.51;60.08;98157.00;4992526;28;102671;-61
2023/08/04 08:40:32;;;;;;;3.75;1.13;;;;;;;25.17;61.34;98162.78;5016866;27;103038;-62
2023/08/04 08:43:37;;;;;;;2.15;1.00;;;;;;;25.99;59.07;98164.53;4994196;28;103065;-60
2023/08/04 08:46:16;;;;;;;3.17;1.25;;;;;;;24.65;62.52;98167.31;4995693;28;103158;-60
2023/08/04 08:53:23;;;;;;;3.00;1.00;;;;;;;27.92;56.88;98162.59;4988795;28;102988;-61
2023/08/04 08:57:18;;;;;;;;;;;;;;;;;;;;;
2023/08/04 09:04:19;;;;;;;2.00;1.00;;;;;;;30.14;48.22;98185.47;5002603;28;102710;-61
2023/08/04 09:07:36;;;;;;;3.10;1.60;;;;;;;28.19;52.21;98185.53;5003967;28;103271;-61
2023/08/04 09:10:56;;;;;;;1.83;0.90;;;;;;;29.23;53.66;98170.19;5005134;28;104066;-61
2023/08/04 09:13:49;;;;;;;2.50;1.07;;;;;;;27.64;52.07;98173.25;4995411;28;103116;-61
2023/08/04 09:20:04;;;;;;;2.10;1.30;;;;;;;26.00;59.68;98177.00;4974137;28;103056;-61
2023/08/04 09:23:07;;;;;;;1.88;1.05;;;;;;;27.75;57.57;98167.03;5002746;28;103042;-61
2023/08/04 09:26:24;;;;;;;2.08;1.20;;;;;;;28.58;54.40;98156.00;5006587;28;103187;-61
2023/08/04 09:29:40;;;;;;;2.17;1.15;;;;;;;27.85;58.18;98150.16;5006416;28;103996;-62
2023/08/04 09:32:29;;;;;;;2.00;1.10;;;;;;;28.46;53.23;98166.06;5004787;28;102729;-63
2023/08/04 09:35:09;;;;;;;3.10;0.88;;;;;;;27.23;58.95;98156.94;4997304;28;103084;-63
2023/08/04 09:37:43;;;;;;;1.63;0.85;;;;;;;28.52;55.47;98165.13;5001419;28;104127;-64
2023/08/04 09:40:19;;;;;;;1.77;0.95;;;;;;;26.31;58.34;98166.13;5002519;28;102609;-63
2023/08/04 09:42:52;;;;;;;2.43;1.00;;;;;;;25.23;61.86;98164.63;4998649;28;102669;-64
2023/08/04 09:45:24;;;;;;;2.55;1.10;;;;;;;26.57;59.49;98159.59;4999625;28;103313;-62
2023/08/04 09:47:57;;;;;;;3.10;1.00;;;;;;;25.19;61.24;98168.78;4998449;28;103299;-61
2023/08/04 09:50:30;;;;;;;1.65;1.00;;;;;;;26.23;60.29;98161.00;4999849;28;102653;-63
2023/08/04 09:53:03;;;;;;;1.80;0.90;;;;;;;25.46;61.47;98164.88;4997945;28;102898;-63
2023/08/04 09:55:37;;;;;;;1.30;0.75;;;;;;;25.66;61.28;98160.19;4999997;28;103045;-63
2023/08/04 09:58:08;;;;;;;2.47;1.17;;;;;;;25.74;60.12;98162.63;5009793;28;103268;-61
2023/08/04 10:00:39;;;;;;;2.35;1.00;;;;;;;26.21;60.39;98163.09;5000403;28;102931;-62
2023/08/04 10:03:12;;;;;;;3.22;1.17;;;;;;;25.45;61.05;98159.69;4997950;28;103994;-61
2023/08/04 10:05:45;;;;;;;1.40;0.80;;;;;;;24.98;62.04;98155.59;4996512;28;104011;-62
2023/08/04 10:08:17;;;;;;;1.42;0.90;;;;;;;25.55;60.70;98150.09;5001248;28;103328;-64
2023/08/04 10:10:48;;;;;;;2.87;1.00;;;;;;;25.43;59.45;98149.13;4998717;28;102829;-64
2023/08/04 10:13:22;;;;;;;1.40;0.93;;;;;;;25.43;61.68;98149.13;5004756;28;102843;-62
2023/08/04 10:15:58;;;;;;;2.63;0.88;;;;;;;24.82;64.45;98153.38;4998554;28;103072;-62
2023/08/04 10:18:47;;;;;;;1.83;0.80;;;;;;;25.21;65.18;98158.56;5000322;28;103205;-62
2023/08/04 10:21:22;;;;;;;2.95;0.90;;;;;;;24.43;65.74;98174.03;4999148;28;103500;-62
2023/08/04 10:23:55;;;;;;;2.75;0.70;;;;;;;25.38;64.12;98165.13;5013865;27;104229;-62
2023/08/04 10:26:26;;;;;;;2.00;0.73;;;;;;;26.62;60.58;98166.00;4998510;28;103135;-61
2023/08/04 10:29:07;;;;;;;1.17;0.60;;;;;;;25.91;61.43;98169.16;4999997;28;103005;-62
2023/08/04 10:31:51;;;;;;;1.20;0.80;;;;;;;26.50;60.72;98156.97;4998642;28;102710;-61
2023/08/04 10:34:31;;;;;;;1.55;1.15;;;;;;;26.58;58.92;98162.09;5002604;28;102653;-61
2023/08/04 10:37:09;;;;;;;1.95;0.70;;;;;;;25.22;62.18;98162.94;5005406;28;103385;-61
2023/08/04 10:39:45;;;;;;;2.58;0.82;;;;;;;25.39;63.76;98164.09;5004705;28;103002;-61
2023/08/04 10:42:25;;;;;;;2.45;1.10;;;;;;;25.51;63.82;98161.56;5001622;28;102707;-61
2023/08/04 10:45:06;;;;;;;1.60;0.80;;;;;;;26.09;61.47;98159.44;5002140;28;104230;-62
2023/08/04 10:47:48;;;;;;;1.38;0.65;;;;;;;26.35;60.88;98165.47;5002233;28;103623;-64
2023/08/04 10:50:45;;;;;;;2.20;0.90;;;;;;;27.06;58.84;98162.97;5000699;28;104588;-62
2023/08/04 10:53:30;;;;;;;1.50;1.00;;;;;;;27.31;58.73;98170.19;4999519;28;102930;-64
2023/08/04 10:56:11;;;;;;;1.27;0.68;;;;;;;28.26;55.95;98179.16;4999556;28;102651;-62
2023/08/04 10:58:50;;;;;;;1.55;0.90;;;;;;;28.26;56.41;98184.59;5004065;28;103155;-64
2023/08/04 11:01:31;;;;;;;3.22;1.10;;;;;;;26.83;58.35;98184.56;5006174;28;103082;-62
2023/08/04 11:04:17;;;;;;;1.20;0.80;;;;;;;28.12;55.48;98179.41;5008988;28;102657;-62
2023/08/04 11:07:03;;;;;;;1.13;0.65;;;;;;;25.62;62.46;98183.34;5001212;28;104404;-64
2023/08/04 11:09:37;;;;;;;1.85;0.98;;;;;;;25.78;64.23;98198.19;4999984;28;103301;-62
2023/08/04 11:12:13;;;;;;;1.10;0.80;;;;;;;26.51;60.99;98196.53;5001826;28;103011;-62
2023/08/04 11:14:46;;;;;;;2.03;0.70;;;;;;;27.05;59.50;98199.28;5001701;28;102685;-62
2023/08/04 11:17:32;;;;;;;1.30;0.75;;;;;;;27.35;58.92;98198.47;5005249;28;102904;-62
2023/08/04 11:20:25;;;;;;;1.55;0.98;;;;;;;26.83;58.47;98200.81;5004727;28;103021;-64
2023/08/04 11:23:06;;;;;;;3.50;0.90;;;;;;;25.42;64.21;98204.22;5003159;28;103906;-64
2023/08/04 11:25:40;;;;;;;2.55;0.90;;;;;;;24.53;68.91;98212.25;4997249;28;102927;-64
2023/08/04 11:28:17;;;;;;;2.15;1.00;;;;;;;25.41;66.96;98205.25;5002635;28;102754;-64
2023/08/04 11:31:08;;;;;;;2.40;0.93;;;;;;;25.24;67.75;98207.63;4999953;28;103097;-63
2023/08/04 11:33:46;;;;;;;2.65;0.77;;;;;;;26.34;63.51;98207.13;5001418;28;103029;-64
2023/08/04 11:36:20;;;;;;;1.73;0.82;;;;;;;26.91;61.81;98202.38;4997821;28;102637;-64
2023/08/04 11:38:55;;;;;;;2.90;1.35;;;;;;;25.84;65.23;98205.44;5003165;28;102911;-64
2023/08/04 11:41:27;;;;;;;1.70;0.80;;;;;;;25.88;64.36;98202.06;5000851;28;103841;-64
2023/08/04 11:44:03;;;;;;;0.98;0.80;;;;;;;24.76;68.02;98212.56;5003347;28;103079;-64
2023/08/04 11:46:34;;;;;;;2.58;0.88;;;;;;;24.57;68.39;98205.34;4995020;28;102688;-65
2023/08/04 11:49:07;;;;;;;1.83;0.98;;;;;;;24.95;67.76;98210.06;5001611;28;102690;-64
2023/08/04 11:51:46;;;;;;;1.70;1.10;;;;;;;25.28;68.05;98214.28;5002712;28;104073;-64
2023/08/04 11:54:24;;;;;;;1.70;1.20;;;;;;;25.06;67.30;98220.22;4999728;28;103412;-64
2023/08/04 11:56:59;;;;;;;1.38;1.05;;;;;;;25.42;64.65;98227.72;5000190;28;102656;-62
2023/08/04 11:59:31;;;;;;;1.00;0.60;;;;;;;25.86;63.58;98231.22;4996152;28;103018;-64
2023/08/04 12:02:08;;;;;;;3.70;2.13;;;;;;;26.42;60.98;98239.31;5000559;28;103385;-65
2023/08/04 12:04:42;;;;;;;0.98;0.73;;;;;;;27.17;60.64;98228.34;4999233;28;103370;-64
2023/08/04 12:07:16;;;;;;;0.82;0.65;;;;;;;26.90;61.32;98230.53;4997063;28;103038;-65
2023/08/04 12:09:50;;;;;;;1.05;0.60;;;;;;;27.67;60.86;98227.06;5000290;28;104120;-65